Time;durP1;ratioP1;P1;durP2;ratioP2;P2;SDS_P1;SDS_P2;PMS_P1;PMS_P2;Temp;Humidity;BMP_temperature;BMP_pressure;BME280_temperature;BME280_humidity;BME280_pressure;Samples;Min_cycle;Max_cycle;Signal;HPM_P1;HPM_P2
2022/09/16 00:00:13;;;;;;;4.88;1.77;;;12.40;21.60;;;;;;5006706;28;20172;-85
2022/09/16 00:02:38;;;;;;;4.43;1.87;;;12.30;26.40;;;;;;5006132;28;20179;-84
2022/09/16 00:05:04;;;;;;;4.50;1.83;;;12.30;33.20;;;;;;5006475;28;20214;-85
2022/09/16 00:07:30;;;;;;;3.23;1.60;;;12.20;45.50;;;;;;5006285;28;20214;-84
2022/09/16 00:09:56;;;;;;;3.03;1.47;;;12.20;48.00;;;;;;5006323;28;20203;-85
2022/09/16 00:12:21;;;;;;;2.80;1.40;;;12.20;47.80;;;;;;5006299;28;20180;-86
2022/09/16 00:14:47;;;;;;;3.47;1.20;;;12.10;53.80;;;;;;5005613;28;20186;-85
2022/09/16 00:17:13;;;;;;;2.23;1.10;;;12.10;71.20;;;;;;5006268;28;20179;-85
2022/09/16 00:19:38;;;;;;;3.42;1.30;;;12.10;66.30;;;;;;5007343;28;20263;-84
2022/09/16 00:22:04;;;;;;;2.90;1.43;;;12.10;62.90;;;;;;5006239;28;20176;-85
2022/09/16 00:24:30;;;;;;;5.13;1.60;;;12.00;53.80;;;;;;5014067;28;20207;-85
2022/09/16 00:26:56;;;;;;;4.70;1.27;;;12.00;47.50;;;;;;5007147;28;20685;-85
2022/09/16 00:29:21;;;;;;;3.00;1.42;;;12.00;36.20;;;;;;5005618;28;20175;-84
2022/09/16 00:31:47;;;;;;;4.07;1.30;;;11.90;39.40;;;;;;5005573;28;20183;-83
2022/09/16 00:34:12;;;;;;;9.38;2.00;;;11.90;43.60;;;;;;5006507;28;20701;-85
2022/09/16 00:36:38;;;;;;;4.10;1.67;;;11.90;44.20;;;;;;5006969;28;20586;-84
2022/09/16 00:39:03;;;;;;;4.63;1.50;;;11.90;41.70;;;;;;5005694;28;20553;-84
2022/09/16 00:41:33;;;;;;;4.93;1.83;;;11.80;54.90;;;;;;5004918;28;21186;-84
2022/09/16 00:44:04;;;;;;;5.60;1.30;;;11.80;53.80;;;;;;5005161;28;20184;-86
2022/09/16 00:46:39;;;;;;;3.33;1.40;;;11.80;56.20;;;;;;5004874;28;20210;-84
2022/09/16 00:49:13;;;;;;;2.90;1.30;;;11.80;61.50;;;;;;5004739;28;20189;-85
2022/09/16 00:51:41;;;;;;;3.43;1.50;;;11.70;70.60;;;;;;5004672;28;20183;-85
2022/09/16 00:54:08;;;;;;;2.80;1.50;;;11.70;77.10;;;;;;5006134;28;20262;-85
2022/09/16 00:56:38;;;;;;;4.07;1.50;;;11.70;80.30;;;;;;5004807;28;20747;-85
2022/09/16 00:59:14;;;;;;;10.60;1.63;;;11.60;90.50;;;;;;5004789;28;20278;-84
2022/09/16 01:01:43;;;;;;;3.30;1.50;;;11.60;88.60;;;;;;5005641;28;20206;-85
2022/09/16 01:04:30;;;;;;;3.23;1.00;;;11.50;98.30;;;;;;5012933;28;20195;-84
2022/09/16 01:06:56;;;;;;;4.47;1.20;;;11.50;99.90;;;;;;5005817;28;20668;-84
2022/09/16 01:09:24;;;;;;;2.13;0.90;;;11.50;99.90;;;;;;5004623;28;20564;-85
2022/09/16 01:11:50;;;;;;;3.37;1.27;;;11.50;99.90;;;;;;5004377;28;20233;-86
2022/09/16 01:17:34;;;;;;;5.17;1.20;;;11.60;99.90;;;;;;5005891;28;20198;-85
2022/09/16 01:20:15;;;;;;;5.47;1.30;;;11.60;99.90;;;;;;4992544;28;20286;-86
2022/09/16 01:22:43;;;;;;;3.30;1.27;;;11.70;99.90;;;;;;5013215;28;20178;-86
2022/09/16 01:25:47;;;;;;;5.50;1.40;;;11.70;99.90;;;;;;5004276;28;20211;-86
2022/09/16 01:28:37;;;;;;;4.60;1.30;;;11.70;97.00;;;;;;4974852;28;20242;-84
2022/09/16 01:31:15;;;;;;;2.77;1.47;;;11.70;99.90;;;;;;4967009;28;20196;-85
2022/09/16 01:33:49;;;;;;;5.07;1.73;;;11.70;99.10;;;;;;4992524;28;20192;-84
2022/09/16 01:36:43;;;;;;;4.50;1.67;;;11.60;99.90;;;;;;5005652;28;20203;-85
2022/09/16 01:39:45;;;;;;;1.90;1.20;;;11.50;99.90;;;;;;5005416;28;20214;-85
2022/09/16 01:42:27;;;;;;;3.93;1.93;;;11.50;99.90;;;;;;5005117;28;20183;-85
2022/09/16 01:45:07;;;;;;;3.20;1.40;;;11.40;99.90;;;;;;5013047;28;20183;-85
2022/09/16 01:48:04;;;;;;;4.30;1.50;;;11.40;99.90;;;;;;5004094;28;20199;-84
2022/09/16 01:50:40;;;;;;;2.83;1.43;;;11.30;99.90;;;;;;5004402;28;20327;-84
2022/09/16 01:53:14;;;;;;;5.10;1.73;;;11.30;99.90;;;;;;5003839;28;20175;-85
2022/09/16 01:56:01;;;;;;;2.03;1.50;;;11.20;99.90;;;;;;5004080;28;20199;-86
2022/09/16 01:58:35;;;;;;;4.63;1.70;;;11.10;99.90;;;;;;5010983;28;20446;-85
2022/09/16 02:01:10;;;;;;;4.63;1.63;;;11.10;99.90;;;;;;5012723;28;20187;-85
2022/09/16 02:03:39;;;;;;;5.10;1.80;;;11.20;99.90;;;;;;5020443;28;20187;-85
2022/09/16 02:06:09;;;;;;;4.57;2.07;;;11.10;99.90;;;;;;5003700;28;20577;-84
2022/09/16 02:08:49;;;;;;;4.23;1.80;;;11.20;99.90;;;;;;5003891;28;20257;-84
2022/09/16 02:11:17;;;;;;;4.30;1.97;;;11.10;99.90;;;;;;5005546;28;20207;-85
2022/09/16 02:13:48;;;;;;;7.53;1.83;;;11.20;99.90;;;;;;5010108;28;20246;-85
2022/09/16 02:16:27;;;;;;;7.80;2.83;;;11.10;99.90;;;;;;5008233;28;20211;-85
2022/09/16 02:19:00;;;;;;;7.67;2.23;;;11.20;99.90;;;;;;5008711;28;20193;-86
2022/09/16 02:21:28;;;;;;;5.47;2.20;;;11.20;99.90;;;;;;4997907;28;20241;-84
2022/09/16 02:23:59;;;;;;;4.10;2.13;;;11.30;99.90;;;;;;5006003;28;20198;-85
2022/09/16 02:26:29;;;;;;;6.57;2.60;;;11.30;99.90;;;;;;5005318;28;20268;-85
2022/09/16 02:28:56;;;;;;;4.47;2.07;;;11.40;99.90;;;;;;5008697;28;20226;-86
2022/09/16 02:31:27;;;;;;;6.07;2.20;;;11.40;99.90;;;;;;5023753;28;20188;-85
2022/09/16 02:34:02;;;;;;;4.13;2.20;;;11.50;99.90;;;;;;5007468;28;20233;-85
2022/09/16 02:36:29;;;;;;;5.93;2.10;;;11.60;99.90;;;;;;5006919;28;21275;-85
2022/09/16 02:39:03;;;;;;;5.27;2.20;;;11.60;99.90;;;;;;5007487;28;20195;-85
2022/09/16 02:41:29;;;;;;;4.73;2.03;;;11.60;99.90;;;;;;5006991;28;20183;-85
2022/09/16 02:43:54;;;;;;;5.77;1.87;;;11.70;99.90;;;;;;5007419;28;20270;-85
2022/09/16 02:46:28;;;;;;;3.87;1.70;;;11.70;99.90;;;;;;5006872;28;20207;-84
2022/09/16 02:49:09;;;;;;;4.10;1.80;;;11.70;99.90;;;;;;5006681;28;20290;-85
2022/09/16 02:51:55;;;;;;;4.43;1.90;;;11.80;99.90;;;;;;5006726;28;20204;-84
2022/09/16 02:54:24;;;;;;;4.07;1.83;;;11.80;99.90;;;;;;5006959;28;20211;-85
2022/09/16 02:56:49;;;;;;;4.80;1.60;;;11.80;99.90;;;;;;5015850;28;20204;-85
2022/09/16 02:59:16;;;;;;;6.57;2.00;;;11.90;99.90;;;;;;5006877;28;20249;-84
2022/09/16 03:01:44;;;;;;;4.27;1.80;;;11.90;97.20;;;;;;5006228;28;20188;-85
2022/09/16 03:04:13;;;;;;;5.17;2.20;;;11.80;97.10;;;;;;5014659;28;21549;-85
2022/09/16 03:06:39;;;;;;;5.67;2.13;;;11.90;95.00;;;;;;5022968;28;21350;-86
2022/09/16 03:09:11;;;;;;;5.47;2.10;;;11.90;95.20;;;;;;5006573;28;20180;-85
2022/09/16 03:12:06;;;;;;;3.23;1.60;;;11.90;85.30;;;;;;5006407;28;20242;-84
2022/09/16 03:14:41;;;;;;;6.53;2.30;;;11.90;78.30;;;;;;5006370;28;20452;-84
2022/09/16 03:17:29;;;;;;;10.03;2.00;;;11.90;84.40;;;;;;5006084;28;20195;-83
2022/09/16 03:20:21;;;;;;;3.27;1.60;;;11.90;86.20;;;;;;5005288;28;20557;-84
2022/09/16 03:22:50;;;;;;;3.50;1.60;;;11.90;77.90;;;;;;5007249;28;20184;-85
2022/09/16 03:25:43;;;;;;;3.97;1.50;;;12.00;78.80;;;;;;5005840;28;21166;-85
2022/09/16 03:28:19;;;;;;;3.57;1.77;;;11.90;86.80;;;;;;5022147;28;20204;-85
2022/09/16 03:31:01;;;;;;;4.23;1.90;;;11.90;80.20;;;;;;5014886;28;20179;-85
2022/09/16 03:33:38;;;;;;;8.33;1.83;;;12.00;71.10;;;;;;5006337;28;20191;-85
2022/09/16 03:36:06;;;;;;;3.27;1.70;;;12.00;69.60;;;;;;5005918;28;20682;-84
2022/09/16 03:38:34;;;;;;;2.77;1.60;;;11.90;69.30;;;;;;5022064;28;20246;-84
2022/09/16 03:41:06;;;;;;;6.30;1.77;;;11.90;88.70;;;;;;5005784;28;20835;-83
2022/09/16 03:43:31;;;;;;;4.90;1.97;;;11.90;78.30;;;;;;5005938;28;20199;-84
2022/09/16 03:45:57;;;;;;;4.87;2.10;;;11.90;66.10;;;;;;5005991;28;20211;-84
2022/09/16 03:48:22;;;;;;;8.87;2.23;;;11.90;79.70;;;;;;5005922;28;21215;-84
2022/09/16 03:50:48;;;;;;;4.10;1.87;;;11.90;84.40;;;;;;5006020;28;20211;-86
2022/09/16 03:53:13;;;;;;;4.13;1.70;;;11.90;77.20;;;;;;5005708;28;20672;-85
2022/09/16 03:55:39;;;;;;;5.97;2.53;;;11.90;85.90;;;;;;5005909;28;20195;-84
2022/09/16 03:58:04;;;;;;;4.20;1.90;;;11.90;84.30;;;;;;5006929;28;20203;-84
2022/09/16 04:00:30;;;;;;;3.83;2.23;;;11.90;81.90;;;;;;5006872;28;21047;-85
2022/09/16 04:02:57;;;;;;;7.20;2.07;;;11.90;82.30;;;;;;5014452;28;20192;-84
2022/09/16 04:05:23;;;;;;;6.63;1.77;;;11.90;79.30;;;;;;5005952;28;20222;-84
2022/09/16 04:07:48;;;;;;;3.50;1.90;;;11.80;85.60;;;;;;5005647;28;20207;-85
2022/09/16 04:10:14;;;;;;;2.63;1.50;;;11.80;91.00;;;;;;5005551;28;20186;-85
2022/09/16 04:12:40;;;;;;;3.47;1.60;;;11.80;97.10;;;;;;5005575;28;20200;-84
2022/09/16 04:15:06;;;;;;;4.20;1.60;;;11.80;91.50;;;;;;5005203;28;20207;-84
2022/09/16 04:17:32;;;;;;;6.47;1.80;;;11.80;92.00;;;;;;5005765;28;20176;-84
2022/09/16 04:19:58;;;;;;;4.80;1.90;;;11.70;99.90;;;;;;5014316;28;20581;-84
2022/09/16 04:22:23;;;;;;;2.33;1.77;;;11.70;99.90;;;;;;5005202;28;20283;-84
2022/09/16 04:24:49;;;;;;;3.77;1.93;;;11.70;99.90;;;;;;5005505;28;20211;-84
2022/09/16 04:27:14;;;;;;;6.00;1.80;;;11.60;99.90;;;;;;5005354;28;20221;-85
2022/09/16 04:29:40;;;;;;;3.03;1.90;;;11.60;99.90;;;;;;5004856;28;20207;-84
2022/09/16 04:32:06;;;;;;;8.00;2.20;;;11.60;99.90;;;;;;5004751;28;20191;-83
2022/09/16 04:34:32;;;;;;;6.20;2.00;;;11.60;99.90;;;;;;5004059;28;20757;-85
2022/09/16 04:36:58;;;;;;;5.10;1.97;;;11.60;99.90;;;;;;5004997;28;20212;-84
2022/09/16 04:39:23;;;;;;;4.67;2.10;;;11.70;99.90;;;;;;5021198;28;20176;-84
2022/09/16 04:41:49;;;;;;;5.03;2.10;;;11.70;99.90;;;;;;5004686;28;20211;-84
2022/09/16 04:44:14;;;;;;;4.07;1.80;;;11.70;99.90;;;;;;5004873;28;20267;-85
2022/09/16 04:46:40;;;;;;;4.53;2.10;;;11.70;99.90;;;;;;5006049;28;20210;-84
2022/09/16 04:49:06;;;;;;;6.33;2.30;;;11.60;99.90;;;;;;5005066;28;20234;-85
2022/09/16 04:51:31;;;;;;;6.50;2.60;;;11.60;99.90;;;;;;5004516;28;20172;-84
2022/09/16 04:53:58;;;;;;;5.43;2.27;;;11.50;99.90;;;;;;5004476;28;20245;-85
2022/09/16 04:56:26;;;;;;;4.13;2.30;;;11.50;99.90;;;;;;5004907;28;20200;-84
2022/09/16 04:58:54;;;;;;;3.83;2.17;;;11.40;99.90;;;;;;5005992;28;20213;-85
2022/09/16 05:01:22;;;;;;;3.17;1.87;;;11.30;99.90;;;;;;5004557;28;20187;-84
2022/09/16 05:03:50;;;;;;;3.87;1.73;;;11.30;99.90;;;;;;5004810;28;20199;-84
2022/09/16 05:06:18;;;;;;;3.47;2.20;;;11.20;99.90;;;;;;5004663;28;20203;-85
2022/09/16 05:08:44;;;;;;;3.37;1.80;;;11.20;99.90;;;;;;5008496;28;20638;-85
2022/09/16 05:11:18;;;;;;;3.87;1.93;;;11.20;99.90;;;;;;5004927;28;20222;-84
2022/09/16 05:13:43;;;;;;;4.73;1.73;;;11.20;99.90;;;;;;5004688;28;20191;-85
2022/09/16 05:16:14;;;;;;;5.70;2.37;;;11.30;99.90;;;;;;5004475;28;20234;-85
2022/09/16 05:18:41;;;;;;;5.17;2.17;;;11.20;99.90;;;;;;4996463;28;20266;-85
2022/09/16 05:21:10;;;;;;;4.33;1.90;;;11.30;99.90;;;;;;5004712;28;20241;-85
2022/09/16 05:23:36;;;;;;;6.07;2.07;;;11.40;99.90;;;;;;5004822;28;20175;-85
2022/09/16 05:26:08;;;;;;;3.93;1.80;;;11.50;99.90;;;;;;5005438;28;20217;-84
2022/09/16 05:28:34;;;;;;;6.17;2.27;;;11.60;99.90;;;;;;5004512;28;20249;-86
2022/09/16 05:31:07;;;;;;;3.23;1.63;;;11.60;99.90;;;;;;5020751;28;20195;-84
2022/09/16 05:33:33;;;;;;;2.77;1.73;;;11.70;99.90;;;;;;5005600;28;20185;-84
2022/09/16 05:36:07;;;;;;;7.23;1.80;;;11.80;99.90;;;;;;5004197;28;20203;-84
2022/09/16 05:38:32;;;;;;;3.93;2.00;;;11.80;99.90;;;;;;5005877;28;20242;-84
2022/09/16 05:40:59;;;;;;;8.53;2.60;;;11.90;99.90;;;;;;5004396;28;20180;-84
2022/09/16 05:43:25;;;;;;;6.73;1.90;;;12.00;98.80;;;;;;5003968;28;20724;-84
2022/09/16 05:45:54;;;;;;;7.00;2.10;;;12.00;94.10;;;;;;5008107;28;20203;-84
2022/09/16 05:48:21;;;;;;;4.57;1.50;;;12.00;76.30;;;;;;5007967;28;20203;-84
2022/09/16 05:51:01;;;;;;;4.13;2.03;;;12.10;68.30;;;;;;5024036;28;20187;-85
2022/09/16 05:53:29;;;;;;;5.70;1.60;;;12.10;53.80;;;;;;5007923;28;20190;-85
2022/09/16 05:55:56;;;;;;;5.70;1.97;;;12.20;49.20;;;;;;5016123;28;20337;-84
2022/09/16 05:58:22;;;;;;;2.53;1.47;;;12.20;36.20;;;;;;5007597;28;21191;-84
2022/09/16 06:00:47;;;;;;;4.33;2.03;;;12.30;28.80;;;;;;5009226;28;20183;-84
2022/09/16 06:03:13;;;;;;;4.97;1.97;;;12.30;19.30;;;;;;5007480;28;20776;-84
2022/09/16 06:05:38;;;;;;;3.43;1.40;;;12.40;1.00;;;;;;5007383;28;20677;-84
2022/09/16 06:08:04;;;;;;;3.20;1.73;;;12.40;2.10;;;;;;5008372;28;20204;-85
2022/09/16 06:10:29;;;;;;;3.30;1.50;;;12.40;2.70;;;;;;5009030;28;20250;-85
2022/09/16 06:12:55;;;;;;;5.03;1.52;;;12.40;1.00;;;;;;5007529;28;20214;-85
2022/09/16 06:15:20;;;;;;;2.90;1.27;;;12.50;1.00;;;;;;5007249;28;20223;-85
2022/09/16 06:17:46;;;;;;;2.83;1.53;;;12.50;1.00;;;;;;5007501;28;20215;-84
2022/09/16 06:20:13;;;;;;;4.00;1.40;;;12.50;1.00;;;;;;5007293;28;20215;-85
2022/09/16 06:22:39;;;;;;;3.93;1.03;;;12.50;1.00;;;;;;5007159;28;20278;-85
2022/09/16 06:25:06;;;;;;;4.33;1.63;;;12.50;1.00;;;;;;5006304;28;20563;-83
2022/09/16 06:27:32;;;;;;;3.03;1.30;;;12.50;1.00;;;;;;5007376;28;20294;-84
2022/09/16 06:29:57;;;;;;;2.40;1.20;;;12.60;1.00;;;;;;5007079;28;20266;-84
2022/09/16 06:32:23;;;;;;;1.73;1.20;;;12.70;1.00;;;;;;5007124;28;20183;-84
2022/09/16 06:34:49;;;;;;;4.78;1.20;;;12.90;1.00;;;;;;5006101;28;21105;-85
2022/09/16 06:37:15;;;;;;;3.60;1.63;;;13.00;1.00;;;;;;5007115;28;20191;-84
2022/09/16 06:39:41;;;;;;;2.92;1.38;;;13.60;1.00;;;;;;5007730;28;20191;-85
2022/09/16 06:42:09;;;;;;;2.83;1.20;;;13.50;1.00;;;;;;5008850;28;21082;-86
2022/09/16 06:44:34;;;;;;;3.22;1.30;;;13.30;1.00;;;;;;5009040;28;20255;-86
2022/09/16 06:47:00;;;;;;;2.70;1.35;;;13.30;1.00;;;;;;5007175;28;20322;-87
2022/09/16 06:49:25;;;;;;;3.10;1.10;;;13.20;1.00;;;;;;5007822;28;20268;-86
2022/09/16 06:51:51;;;;;;;1.98;1.20;;;13.20;1.00;;;;;;5007234;28;21076;-85
2022/09/16 06:54:17;;;;;;;2.83;1.30;;;13.00;1.00;;;;;;4999510;28;20186;-85
2022/09/16 06:56:42;;;;;;;1.98;0.95;;;13.00;1.00;;;;;;5007736;28;20681;-85
2022/09/16 06:59:10;;;;;;;2.70;1.20;;;13.00;1.00;;;;;;5006814;28;20203;-84
2022/09/16 07:01:36;;;;;;;4.93;1.15;;;13.60;1.00;;;;;;5007476;28;20207;-85
2022/09/16 07:04:04;;;;;;;3.85;1.20;;;13.30;1.00;;;;;;5008455;28;20989;-85
2022/09/16 07:06:31;;;;;;;4.50;1.77;;;13.50;1.00;;;;;;5004499;28;20203;-84
2022/09/16 07:08:57;;;;;;;2.80;1.10;;;13.50;1.00;;;;;;5005206;28;20203;-83
2022/09/16 07:11:23;;;;;;;3.33;1.27;;;13.50;1.00;;;;;;5005372;28;20187;-85
2022/09/16 07:13:50;;;;;;;4.05;1.17;;;13.30;1.00;;;;;;5008392;28;20183;-85
2022/09/16 07:16:20;;;;;;;3.05;0.85;;;13.40;1.00;;;;;;5006207;28;20212;-85
2022/09/16 07:18:47;;;;;;;2.22;0.85;;;13.60;1.00;;;;;;5008958;28;20684;-85
2022/09/16 07:21:17;;;;;;;4.00;1.27;;;13.70;1.00;;;;;;5006285;28;20740;-84
2022/09/16 07:23:44;;;;;;;2.72;1.20;;;13.80;99.90;;;;;;5008656;28;20255;-85
2022/09/16 07:26:15;;;;;;;4.28;1.15;;;13.90;99.90;;;;;;5007492;28;20285;-84
2022/09/16 07:28:42;;;;;;;1.50;1.10;;;14.00;99.90;;;;;;5007563;28;20211;-85
2022/09/16 07:31:11;;;;;;;2.13;1.30;;;14.30;99.90;;;;;;5007531;28;20211;-86
2022/09/16 07:33:38;;;;;;;3.13;1.05;;;14.50;97.70;;;;;;5009316;28;20638;-85
2022/09/16 07:36:06;;;;;;;1.88;1.00;;;14.60;1.00;;;;;;5008632;28;20207;-86
2022/09/16 07:38:32;;;;;;;2.80;1.02;;;14.70;1.00;;;;;;5007661;28;20176;-85
2022/09/16 07:41:11;;;;;;;3.33;1.05;;;14.60;1.00;;;;;;5006901;28;20195;-86
2022/09/16 07:43:39;;;;;;;4.50;1.30;;;14.60;1.00;;;;;;5004546;28;21612;-85
2022/09/16 07:46:07;;;;;;;3.30;1.42;;;14.90;99.90;;;;;;4996396;28;21008;-86
2022/09/16 07:48:33;;;;;;;5.18;1.00;;;15.00;1.00;;;;;;5002996;28;20297;-86
2022/09/16 07:51:06;;;;;;;3.45;1.23;;;14.90;1.00;;;;;;5003044;28;20187;-84
2022/09/16 07:53:32;;;;;;;2.10;0.82;;;14.70;99.90;;;;;;5019314;28;20180;-87
2022/09/16 07:56:18;;;;;;;2.97;1.17;;;14.50;1.00;;;;;;5001751;28;20214;-86
2022/09/16 07:58:45;;;;;;;2.22;0.98;;;14.40;1.00;;;;;;5002344;28;20290;-85
2022/09/16 08:01:13;;;;;;;5.07;1.13;;;14.30;99.90;;;;;;5003725;28;20673;-86
2022/09/16 08:03:39;;;;;;;4.95;1.23;;;14.20;99.90;;;;;;5006774;28;20191;-85
2022/09/16 08:06:13;;;;;;;1.52;0.70;;;14.40;1.00;;;;;;5006115;28;20233;-87
2022/09/16 08:08:40;;;;;;;5.60;1.42;;;14.40;1.00;;;;;;5003299;28;20213;-87
2022/09/16 08:11:06;;;;;;;2.47;0.90;;;14.40;99.90;;;;;;5001515;28;20215;-87
2022/09/16 08:13:39;;;;;;;4.20;1.20;;;14.40;1.00;;;;;;4994452;28;20175;-90
2022/09/16 08:16:56;;;;;;;3.15;1.17;;;14.20;99.90;;;;;;4996687;28;20207;-90
2022/09/16 08:19:22;;;;;;;5.10;1.08;;;14.20;99.90;;;;;;5010322;28;20270;-89
2022/09/16 08:21:49;;;;;;;3.13;1.00;;;14.10;1.00;;;;;;5010389;28;20267;-92
2022/09/16 08:24:15;;;;;;;4.28;1.10;;;14.10;1.00;;;;;;4992567;28;20196;-91
2022/09/16 08:27:19;;;;;;;3.20;1.10;;;14.10;1.00;;;;;;4992516;28;20200;-91
2022/09/16 08:29:57;;;;;;;1.52;0.82;;;14.30;1.00;;;;;;5009715;28;20289;-91
2022/09/16 08:33:10;;;;;;;4.22;1.30;;;14.60;1.00;;;;;;5011666;28;20266;-92
2022/09/16 08:36:23;;;;;;;4.72;1.00;;;15.00;1.00;;;;;;5012658;28;20207;-92
2022/09/16 08:38:53;;;;;;;4.57;1.23;;;15.10;99.90;;;;;;5011339;28;20238;-91
2022/09/16 08:45:02;;;;;;;4.72;1.10;;;14.80;1.00;;;;;;5012715;28;20174;-92
2022/09/16 08:48:18;;;;;;;3.28;1.10;;;14.50;1.00;;;;;;4991830;28;20250;-90
2022/09/16 08:51:07;;;;;;;5.30;1.30;;;14.50;99.90;;;;;;4972676;28;20196;-91
2022/09/16 08:53:46;;;;;;;4.90;1.15;;;14.90;1.00;;;;;;4991983;28;20164;-90
2022/09/16 08:56:17;;;;;;;1.83;0.95;;;15.00;99.90;;;;;;5010762;28;20235;-89
2022/09/16 08:58:53;;;;;;;3.17;1.25;;;15.00;99.90;;;;;;5008336;28;20666;-89
2022/09/16 09:01:31;;;;;;;4.60;1.30;;;14.70;1.00;;;;;;5008606;28;20261;-90
2022/09/16 09:04:05;;;;;;;4.07;1.00;;;14.70;1.00;;;;;;5009414;28;20585;-89
2022/09/16 09:06:42;;;;;;;3.30;0.90;;;14.80;1.00;;;;;;5010936;28;20206;-91
2022/09/16 09:09:46;;;;;;;3.75;0.93;;;14.80;1.00;;;;;;5011060;28;20196;-91
2022/09/16 09:12:16;;;;;;;7.82;1.58;;;15.10;1.00;;;;;;5016322;28;20404;-88
2022/09/16 09:14:48;;;;;;;3.03;1.05;;;15.20;1.00;;;;;;5005547;28;20238;-89
2022/09/16 09:17:28;;;;;;;5.68;1.38;;;15.40;99.90;;;;;;5010748;28;20192;-91
2022/09/16 09:20:13;;;;;;;3.38;1.15;;;15.50;99.90;;;;;;5010690;28;20198;-91
2022/09/16 09:23:07;;;;;;;6.28;1.25;;;15.80;1.00;;;;;;5010311;28;20542;-91
2022/09/16 09:25:35;;;;;;;7.72;1.40;;;15.80;1.00;;;;;;5010955;28;20301;-91
2022/09/16 09:28:22;;;;;;;3.83;1.17;;;15.60;1.00;;;;;;5011198;28;20203;-91
2022/09/16 09:31:12;;;;;;;4.35;1.13;;;15.70;99.90;;;;;;5013578;28;20203;-90
2022/09/16 09:33:47;;;;;;;4.93;1.00;;;15.70;91.70;;;;;;5010846;28;20618;-91
2022/09/16 09:36:35;;;;;;;5.15;1.17;;;16.00;99.90;;;;;;5010192;28;20199;-89
2022/09/16 09:39:52;;;;;;;4.40;0.93;;;16.10;99.90;;;;;;5010655;28;20194;-90
2022/09/16 09:42:24;;;;;;;3.75;1.13;;;16.10;99.90;;;;;;4968278;28;20218;-91
2022/09/16 09:45:21;;;;;;;4.20;0.90;;;16.20;99.90;;;;;;5011139;28;20277;-91
2022/09/16 09:47:54;;;;;;;5.00;1.13;;;16.10;99.90;;;;;;5008228;28;20283;-91
2022/09/16 09:50:47;;;;;;;3.28;1.00;;;16.60;99.90;;;;;;4997192;28;20188;-91
2022/09/16 09:53:28;;;;;;;3.00;1.10;;;16.30;99.90;;;;;;5010924;28;20188;-90
2022/09/16 09:56:07;;;;;;;4.45;1.10;;;15.80;99.90;;;;;;5011552;28;20583;-91
2022/09/16 09:58:43;;;;;;;8.23;1.17;;;15.50;1.00;;;;;;4991692;28;20223;-89
2022/09/16 10:01:10;;;;;;;5.95;1.20;;;15.20;99.90;;;;;;5002534;28;20187;-90
2022/09/16 10:03:36;;;;;;;5.20;1.00;;;15.00;96.30;;;;;;5007390;28;20184;-89
2022/09/16 10:06:02;;;;;;;5.95;1.40;;;14.90;1.00;;;;;;5008785;28;20207;-89
2022/09/16 10:08:50;;;;;;;6.85;1.30;;;14.80;99.90;;;;;;5012476;28;20264;-91
2022/09/16 10:11:21;;;;;;;4.63;1.30;;;14.50;99.90;;;;;;5002592;28;20189;-90
2022/09/16 10:13:49;;;;;;;4.28;1.20;;;14.40;6.50;;;;;;5005514;28;20254;-91
2022/09/16 10:16:19;;;;;;;5.07;1.20;;;14.30;1.00;;;;;;5011998;28;20203;-89
2022/09/16 10:18:53;;;;;;;3.63;0.85;;;14.20;1.00;;;;;;5010737;28;20203;-90
2022/09/16 10:21:19;;;;;;;2.92;0.95;;;14.30;1.00;;;;;;5009213;28;20266;-90
2022/09/16 10:23:56;;;;;;;4.95;1.20;;;14.50;1.00;;;;;;5012251;28;20656;-92
2022/09/16 10:26:22;;;;;;;9.40;1.80;;;14.60;99.90;;;;;;5013218;28;20302;-92
2022/09/16 10:28:59;;;;;;;4.57;1.20;;;14.60;99.90;;;;;;5012323;28;20688;-91
2022/09/16 10:31:34;;;;;;;5.82;1.30;;;14.60;99.90;;;;;;5009090;28;20184;-92
2022/09/16 10:34:01;;;;;;;4.53;1.10;;;14.60;47.30;;;;;;5014723;28;20175;-92
2022/09/16 10:36:32;;;;;;;4.20;1.23;;;14.90;99.90;;;;;;5015091;28;20233;-90
2022/09/16 10:39:01;;;;;;;2.72;1.00;;;15.10;1.00;;;;;;5014537;28;20188;-89
2022/09/16 10:41:31;;;;;;;4.43;1.10;;;15.10;1.00;;;;;;5008238;28;20284;-89
2022/09/16 10:44:27;;;;;;;4.18;0.90;;;15.20;1.00;;;;;;5015370;28;20183;-89
2022/09/16 10:47:13;;;;;;;3.35;1.38;;;15.40;99.90;;;;;;4999575;28;20246;-89
2022/09/16 10:49:49;;;;;;;5.70;1.48;;;15.60;1.00;;;;;;5029688;28;20179;-89
2022/09/16 10:52:16;;;;;;;3.38;1.40;;;15.70;1.00;;;;;;5014140;28;20274;-88
2022/09/16 10:54:42;;;;;;;4.97;0.98;;;15.80;1.00;;;;;;5015831;28;20180;-89
2022/09/16 10:57:32;;;;;;;4.38;0.90;;;16.60;99.90;;;;;;5018078;28;20666;-89
2022/09/16 11:00:13;;;;;;;3.50;0.93;;;16.70;99.90;;;;;;5015562;28;20646;-90
2022/09/16 11:02:50;;;;;;;4.00;0.95;;;16.90;99.90;;;;;;5014257;28;20179;-89
2022/09/16 11:05:23;;;;;;;3.95;0.70;;;16.70;99.90;;;;;;5016447;28;20230;-89
2022/09/16 11:08:39;;;;;;;3.92;0.90;;;16.80;99.90;;;;;;5013994;28;20266;-88
2022/09/16 11:11:30;;;;;;;5.03;1.10;;;16.60;99.90;;;;;;5013292;28;20187;-88
2022/09/16 11:14:28;;;;;;;4.05;1.33;;;16.20;99.90;;;;;;5019925;28;20270;-88
2022/09/16 11:17:31;;;;;;;5.88;1.40;;;16.00;99.90;;;;;;5013540;28;20203;-89
2022/09/16 11:20:29;;;;;;;4.25;1.00;;;;;;;;;;5003985;28;20175;-88
2022/09/16 11:23:06;;;;;;;4.57;1.17;;;;;;;;;;5014583;28;20187;-89
2022/09/16 11:25:49;;;;;;;4.38;1.30;;;;;;;;;;5014159;28;20235;-88
2022/09/16 11:28:34;;;;;;;3.22;0.93;;;;;;;;;;5013968;28;20210;-88
2022/09/16 11:31:07;;;;;;;3.80;1.00;;;;;;;;;;5013942;28;20183;-87
2022/09/16 11:33:35;;;;;;;4.30;1.08;;;;;;;;;;5013247;28;20179;-89
2022/09/16 11:36:20;;;;;;;4.93;1.02;;;;;;;;;;5013492;28;20208;-88
2022/09/16 11:38:49;;;;;;;4.40;0.90;;;;;;;;;;5013855;28;20206;-88
2022/09/16 11:41:39;;;;;;;2.95;1.00;;;;;;;;;;5013683;28;20183;-88
2022/09/16 11:44:05;;;;;;;4.93;1.40;;;;;;;;;;5013158;28;20179;-88
2022/09/16 11:46:31;;;;;;;5.57;1.00;;;;;;;;;;5013698;28;20213;-89
2022/09/16 11:49:01;;;;;;;3.15;0.90;;;;;;;;;;5013529;28;20687;-88
2022/09/16 11:51:33;;;;;;;4.20;1.00;;;;;;;;;;5015041;28;20172;-88
2022/09/16 11:54:23;;;;;;;4.50;0.85;;;;;;;;;;5013490;28;20271;-89
2022/09/16 11:56:51;;;;;;;5.03;0.82;;;;;;;;;;5003730;28;20309;-88
2022/09/16 11:59:26;;;;;;;3.97;0.80;;;;;;;;;;5013279;28;20199;-88
2022/09/16 12:01:57;;;;;;;2.35;0.77;;;;;;;;;;5013066;28;20248;-89
2022/09/16 12:04:35;;;;;;;2.13;0.90;;;;;;;;;;5013194;28;20172;-88
2022/09/16 12:07:10;;;;;;;2.97;1.08;;;;;;;;;;5013152;28;20740;-88
2022/09/16 12:09:55;;;;;;;2.83;0.77;;;;;;;;;;5012602;28;20545;-89
2022/09/16 12:12:39;;;;;;;4.70;0.85;;;;;;;;;;5010262;28;20187;-89
2022/09/16 12:15:12;;;;;;;3.30;0.88;;;;;;;;;;5012971;28;20191;-88
2022/09/16 12:17:40;;;;;;;2.80;0.77;;;;;;;;;;5013396;28;20191;-88
2022/09/16 12:20:12;;;;;;;5.35;1.00;;;;;;;;;;5013154;28;20191;-88
2022/09/16 12:22:44;;;;;;;3.50;1.10;;;;;;;;;;5013157;28;20187;-88
2022/09/16 12:25:16;;;;;;;3.45;0.90;;;;;;;;;;5013255;28;20564;-87
2022/09/16 12:27:59;;;;;;;4.20;1.02;;;;;;;;;;5012527;28;20199;-87
2022/09/16 12:30:28;;;;;;;5.55;0.77;;;;;;;;;;5012819;28;20172;-89
2022/09/16 12:33:01;;;;;;;5.45;1.05;;;;;;;;;;5012631;28;20175;-88
2022/09/16 12:35:30;;;;;;;5.47;1.08;;;;;;;;;;5013929;28;20195;-87
2022/09/16 12:37:56;;;;;;;3.28;1.23;;;;;;;;;;5013080;28;20176;-87
2022/09/16 12:40:32;;;;;;;3.22;1.10;;;;;;;;;;5012391;28;20657;-88
2022/09/16 12:43:17;;;;;;;6.78;0.98;;;;;;;;;;5002145;28;20194;-86
2022/09/16 12:45:52;;;;;;;4.35;1.00;;;;;;;;;;5013569;28;20195;-87
2022/09/16 12:48:24;;;;;;;1.50;0.65;;;;;;;;;;5012283;28;20677;-87
2022/09/16 12:50:50;;;;;;;4.38;1.00;;;;;;;;;;5012356;28;20198;-87
2022/09/16 12:53:19;;;;;;;3.72;0.90;;;;;;;;;;5012057;28;20541;-88
2022/09/16 12:56:06;;;;;;;5.10;1.10;;;;;;;;;;5011125;28;20574;-86
2022/09/16 12:58:51;;;;;;;1.50;0.75;;;;;;;;;;5013303;28;20208;-87
2022/09/16 13:01:32;;;;;;;4.80;0.80;;;;;;;;;;5011858;28;20176;-87
2022/09/16 13:04:16;;;;;;;20.63;2.25;;;;;;;;;;5011286;28;20195;-87
2022/09/16 13:07:01;;;;;;;4.97;1.23;;;;;;;;;;5012523;28;20195;-93
2022/09/16 13:40:48;;;;;;;4.68;1.13;;;;;;;;;;5020629;28;20190;-90
2022/09/16 13:47:09;;;;;;;3.63;1.10;;;;;;;;;;5014748;28;20315;-92
2022/09/16 13:50:27;;;;;;;4.47;0.90;;;;;;;;;;4996511;28;20745;-91
2022/09/16 13:52:54;;;;;;;2.08;0.80;;;;;;;;;;4996868;28;20646;-90
2022/09/16 13:55:23;;;;;;;5.80;0.93;;;;;;;;;;5010039;28;20207;-90
2022/09/16 13:57:55;;;;;;;3.47;1.00;;;;;;;;;;5013515;28;20230;-91
2022/09/16 14:00:21;;;;;;;2.13;0.63;;;;;;;;;;5012809;28;20179;-90
2022/09/16 14:02:53;;;;;;;2.25;0.80;;;;;;;;;;5012966;28;20184;-91
2022/09/16 14:05:19;;;;;;;2.03;0.90;;;;;;;;;;5011546;28;20298;-89
2022/09/16 14:07:45;;;;;;;3.20;0.55;;;;;;;;;;5014164;28;20286;-89
2022/09/16 14:10:17;;;;;;;3.53;0.85;;;;;;;;;;5015057;28;20179;-90
2022/09/16 14:22:16;;;;;;;8.02;1.65;;;;;;;;;;5016311;28;20163;-87
2022/09/16 14:24:43;;;;;;;4.25;1.10;;;;;;;;;;5014301;28;20187;-88
2022/09/16 14:27:22;;;;;;;2.67;0.70;;;;;;;;;;5014484;28;20187;-90
2022/09/16 14:30:00;;;;;;;4.68;1.25;;;;;;;;;;5014750;28;20721;-90